ROMMA est une association bénévole à but non lucratif. Votre soutien est indispensable : ADHERER à ROMMA ou FAIRE un DON

Trept - (38, Isère)

Plateau de Crémieu (265 m)   Longitude: 5° 19' 27" E   Latitude: 45° 41' 15"N Station partenaire n°94
 

Détail journalier du     <<     >>

Température Precipitation Humidité Pression Vent Dir Rafale Dir. rafale
Heure (°C) (mm) (%) (hPa) (km/h) (km/h)
01:00 14.506710181NE5O
02:00 13.906710192OSO8ONO
03:00 12.5070101903OSO
04:00 12.107110192OSO6OSO
05:00 11.0075101906SO
06:00 10.307710191SO5SO
07:00 9.807710191SO5NNO
08:00 9.607710201NNO5SO
09:00 11.207110202O11ONO
10:00 12.906610205ONO15ONO
11:00 15.205910204NE15ONO
12:00 17.605410204ONO15O
13:00 19.205110205O19O
14:00 21.004810206NE18ONO
15:00 22.104710196NNE18NO
16:00 22.704510196NNE21NE
17:00 22.704510196NE18ENE
18:00 21.904210197NNE19NE
19:00 20.804010197NNE19NNE
20:00 18.804310193NE16NE
21:00 17.204810202N11NNE
22:00 15.705310201E6NO
23:00 14.805610202NO10ONO
minuit 14.605710213OSO11ONO

Graphique du 19-09-2019

 

Serveur OMMA